Time;durP1;ratioP1;P1;durP2;ratioP2;P2;SDS_P1;SDS_P2;PMS_P1;PMS_P2;Temp;Humidity;BMP_temperature;BMP_pressure;BME280_temperature;BME280_humidity;BME280_pressure;Samples;Min_cycle;Max_cycle;Signal;HPM_P1;HPM_P2
2021/12/04 00:02:03;;;;;;;39.40;15.60;;;;;;;-1.74;60.66;98559.58;102904;1318;105509;-75
2021/12/04 00:04:36;;;;;;;36.70;16.20;;;;;;;-1.80;60.79;98557.66;102858;1318;99137;-75
2021/12/04 00:07:07;;;;;;;36.60;15.30;;;;;;;-1.81;61.09;98554.05;102700;1321;99314;-75
2021/12/04 00:09:36;;;;;;;39.70;16.10;;;;;;;-1.84;60.82;98556.08;102991;1318;112518;-75
2021/12/04 00:12:06;;;;;;;36.20;14.80;;;;;;;-1.90;60.76;98554.84;102968;1318;99250;-75
2021/12/04 00:14:36;;;;;;;38.40;15.10;;;;;;;-2.00;60.92;98553.23;103013;1322;107853;-76
2021/12/04 00:17:05;;;;;;;41.90;18.10;;;;;;;-2.10;60.78;98543.80;102949;1319;99452;-73
2021/12/04 00:19:34;;;;;;;36.80;15.00;;;;;;;-2.16;60.82;98537.38;103005;1323;100404;-73
2021/12/04 00:22:03;;;;;;;40.70;15.90;;;;;;;-2.23;60.77;98536.71;102852;1322;112962;-72
2021/12/04 00:24:31;;;;;;;36.80;15.70;;;;;;;-2.30;60.97;98535.85;102753;1320;99395;-73
2021/12/04 00:26:59;;;;;;;35.70;16.10;;;;;;;-2.31;61.06;98537.45;103003;1318;107885;-74
2021/12/04 00:29:27;;;;;;;36.30;15.40;;;;;;;-2.33;60.76;98539.77;102927;1318;99355;-73
2021/12/04 00:32:00;;;;;;;35.50;15.70;;;;;;;-2.35;60.80;98537.58;102930;1320;97973;-73
2021/12/04 00:34:30;;;;;;;40.30;16.50;;;;;;;-2.37;60.77;98543.35;102929;1319;112861;-75
2021/12/04 00:50:52;;;;;;;38.40;15.90;;;;;;;-2.69;60.77;98545.45;102935;1320;99322;-74
2021/12/04 00:53:20;;;;;;;34.70;15.00;;;;;;;-2.69;60.92;98542.15;102945;1318;107859;-74
2021/12/04 00:55:48;;;;;;;38.30;16.20;;;;;;;-2.68;60.83;98539.71;102929;1319;99363;-75
2021/12/04 00:58:16;;;;;;;38.20;17.60;;;;;;;-2.70;60.94;98535.92;102809;1324;96537;-73
2021/12/04 01:00:44;;;;;;;37.90;16.40;;;;;;;-2.71;60.84;98530.23;102994;1320;110652;-74
2021/12/04 01:03:12;;;;;;;34.00;15.70;;;;;;;-2.74;60.72;98528.05;102942;1319;99498;-76
2021/12/04 01:05:40;;;;;;;34.50;13.10;;;;;;;-2.77;60.87;98530.91;102814;1319;107786;-73
2021/12/04 01:08:08;;;;;;;38.70;16.50;;;;;;;-2.81;60.87;98533.63;102943;1318;99232;-75
2021/12/04 01:10:36;;;;;;;38.70;14.00;;;;;;;-2.83;60.92;98533.34;102767;1320;97433;-75
2021/12/04 01:13:10;;;;;;;39.50;16.50;;;;;;;-2.94;61.13;98527.54;102752;1321;112877;-76
2021/12/04 01:15:42;;;;;;;;;;;;;;;-3.09;61.09;98525.33;102866;1321;99224;-75
2021/12/04 01:18:12;;;;;;;42.10;17.90;;;;;;;-3.24;61.28;98523.82;102844;1322;107873;-74
2021/12/04 01:20:40;;;;;;;41.50;19.70;;;;;;;-3.33;61.32;98524.54;102909;1317;99297;-75
2021/12/04 01:23:08;;;;;;;39.00;16.70;;;;;;;-3.35;61.08;98525.13;102979;1318;99255;-74
2021/12/04 01:25:37;;;;;;;34.20;14.30;;;;;;;-3.33;61.37;98524.04;102760;1322;111285;-74
2021/12/04 01:28:06;;;;;;;36.50;15.30;;;;;;;-3.29;61.34;98514.92;102972;1318;99341;-75
2021/12/04 01:30:34;;;;;;;37.20;15.00;;;;;;;-3.26;61.36;98515.20;102985;1319;107820;-74
2021/12/04 01:33:02;;;;;;;36.40;16.70;;;;;;;-3.32;61.35;98514.27;102970;1318;99361;-74
2021/12/04 01:35:30;;;;;;;35.20;15.20;;;;;;;-3.39;61.44;98515.69;103019;1324;99247;-75
2021/12/04 01:37:58;;;;;;;38.30;15.70;;;;;;;-3.40;61.42;98514.49;102768;1322;113665;-74
2021/12/04 01:40:27;;;;;;;33.00;14.10;;;;;;;-3.41;61.44;98511.92;102586;1322;98317;-73
2021/12/04 01:42:55;;;;;;;37.20;16.30;;;;;;;-3.41;61.57;98512.77;102759;1320;107720;-74
2021/12/04 01:45:24;;;;;;;37.40;15.20;;;;;;;-3.42;61.60;98512.80;102772;1321;99375;-73
2021/12/04 01:47:58;;;;;;;38.30;16.90;;;;;;;-3.43;61.62;98506.41;102680;1322;99694;-73
2021/12/04 01:50:27;;;;;;;39.00;16.70;;;;;;;-3.43;61.73;98504.85;102695;1321;113014;-73
2021/12/04 01:52:59;;;;;;;37.20;15.80;;;;;;;-3.42;61.60;98501.36;102870;1318;99317;-72
2021/12/04 01:55:31;;;;;;;33.00;14.00;;;;;;;-3.41;61.51;98499.95;102709;1322;108490;-73
2021/12/04 01:58:01;;;;;;;33.50;14.20;;;;;;;-3.41;61.65;98496.66;102978;1318;99230;-73
2021/12/04 02:00:31;;;;;;;35.00;14.50;;;;;;;-3.42;61.72;98492.18;102717;1319;99291;-72
2021/12/04 02:02:59;;;;;;;31.80;13.80;;;;;;;-3.47;61.94;98487.96;102879;1322;111836;-74
2021/12/04 02:05:28;;;;;;;28.20;12.20;;;;;;;-3.53;61.81;98491.94;102898;1318;99352;-75
2021/12/04 02:07:55;;;;;;;31.80;12.40;;;;;;;-3.57;61.81;98496.02;102595;1320;107687;-74
2021/12/04 02:10:25;;;;;;;32.40;12.60;;;;;;;-3.59;61.89;98494.31;102675;1324;99359;-74
2021/12/04 02:12:53;;;;;;;28.90;11.80;;;;;;;-3.58;61.95;98486.67;102962;1318;97337;-74
2021/12/04 02:15:24;;;;;;;31.20;12.40;;;;;;;-3.61;61.81;98487.08;102974;1318;113078;-75
2021/12/04 02:17:52;;;;;;;29.70;11.60;;;;;;;-3.64;61.86;98480.05;102783;1321;99156;-74
2021/12/04 02:20:22;;;;;;;27.70;11.90;;;;;;;-3.62;61.97;98487.13;102747;1321;105983;-74
2021/12/04 02:22:51;;;;;;;28.50;11.40;;;;;;;-3.60;62.05;98486.53;102863;1325;99965;-74
2021/12/04 02:25:19;;;;;;;26.00;11.90;;;;;;;-3.55;62.16;98483.85;103031;1318;99413;-73
2021/12/04 02:27:49;;;;;;;25.10;9.50;;;;;;;-3.53;62.21;98472.68;103048;1319;112839;-73
2021/12/04 02:30:26;;;;;;;26.40;10.10;;;;;;;-3.51;61.97;98473.69;103051;1319;99107;-74
2021/12/04 02:32:55;;;;;;;25.70;10.30;;;;;;;-3.53;62.03;98471.65;103019;1318;106834;-74
2021/12/04 02:35:25;;;;;;;39.60;15.80;;;;;;;-3.52;62.32;98469.73;102825;1320;99147;-75
2021/12/04 02:37:53;;;;;;;46.00;18.70;;;;;;;-3.49;62.39;98462.02;103048;1319;99368;-76
2021/12/04 02:40:24;;;;;;;28.00;10.30;;;;;;;-3.46;62.32;98455.35;103011;1318;112926;-75
2021/12/04 02:42:52;;;;;;;25.90;9.20;;;;;;;-3.46;62.32;98453.42;102809;1319;99388;-74
2021/12/04 02:45:20;;;;;;;26.40;11.20;;;;;;;-3.48;62.07;98451.39;102790;1321;107890;-76
2021/12/04 02:47:48;;;;;;;27.20;10.60;;;;;;;-3.52;62.12;98444.41;102823;1323;99295;-75
2021/12/04 02:50:17;;;;;;;25.30;10.20;;;;;;;-3.59;62.04;98444.75;102789;1322;99251;-74
2021/12/04 02:52:45;;;;;;;27.60;10.50;;;;;;;-3.68;62.40;98447.23;102867;1318;112913;-74
2021/12/04 02:55:16;;;;;;;29.40;12.30;;;;;;;-3.81;62.37;98444.59;102819;1320;121831;-77
2021/12/04 02:57:45;;;;;;;29.30;11.30;;;;;;;-3.91;62.47;98439.30;102835;1325;108851;-75
2021/12/04 03:00:18;;;;;;;29.70;11.70;;;;;;;-3.95;62.60;98434.91;103024;1318;99872;-74
2021/12/04 03:02:46;;;;;;;;;;;;;;;-4.00;62.50;98432.94;102849;1321;99293;-74
2021/12/04 03:05:22;;;;;;;27.30;11.00;;;;;;;-4.07;62.73;98428.07;103001;1318;112903;-75
2021/12/04 03:07:51;;;;;;;26.40;10.40;;;;;;;-4.08;62.79;98427.06;102827;1322;99241;-76
2021/12/04 03:10:20;;;;;;;26.80;10.40;;;;;;;-4.09;62.91;98421.91;102974;1319;107726;-76
2021/12/04 03:12:48;;;;;;;25.60;9.10;;;;;;;-4.08;62.92;98411.98;103026;1319;99387;-75
2021/12/04 03:15:17;;;;;;;24.00;8.80;;;;;;;-4.05;62.95;98415.20;103009;1318;100346;-75
2021/12/04 03:17:44;;;;;;;22.80;8.50;;;;;;;-4.01;63.24;98411.65;102919;1319;111876;-75
2021/12/04 03:20:13;;;;;;;24.20;8.50;;;;;;;-3.97;63.10;98408.27;102923;1319;96644;-74
2021/12/04 03:22:41;;;;;;;24.60;8.50;;;;;;;-3.91;63.17;98403.45;103016;1319;107853;-74
2021/12/04 03:25:09;;;;;;;23.70;8.90;;;;;;;-3.83;63.27;98401.16;102905;1318;96651;-75
2021/12/04 03:27:39;;;;;;;22.00;8.00;;;;;;;-3.76;63.60;98392.84;102849;1322;98400;-75
2021/12/04 03:30:17;;;;;;;19.90;6.60;;;;;;;-3.68;63.68;98390.05;102813;1325;112844;-75
2021/12/04 03:35:13;;;;;;;22.20;7.90;;;;;;;-3.61;63.95;98387.27;102808;1321;96611;-74
2021/12/04 03:40:57;;;;;;;22.80;8.70;;;;;;;-3.41;64.28;98374.61;102970;1319;99285;-75
2021/12/04 03:43:29;;;;;;;21.80;7.90;;;;;;;-3.36;64.18;98378.62;102754;1321;112946;-76
2021/12/04 03:45:59;;;;;;;21.60;7.40;;;;;;;-3.31;64.17;98377.98;102950;1321;99349;-74
2021/12/04 03:48:49;;;;;;;24.40;8.90;;;;;;;-3.26;64.36;98379.95;102923;1319;107877;-73
2021/12/04 03:51:17;;;;;;;24.40;8.50;;;;;;;-3.24;64.44;98381.58;103022;1317;99255;-75
2021/12/04 03:53:45;;;;;;;23.40;8.10;;;;;;;-3.20;65.03;98374.23;103003;1318;99361;-72
2021/12/04 03:56:15;;;;;;;19.70;7.60;;;;;;;-3.19;64.93;98376.80;102968;1323;113563;-73
2021/12/04 03:58:43;;;;;;;23.30;8.40;;;;;;;-3.18;65.04;98376.75;102970;1318;98924;-73
2021/12/04 04:01:11;;;;;;;18.50;6.90;;;;;;;-3.16;65.20;98376.20;102961;1318;107783;-74
2021/12/04 04:03:39;;;;;;;19.00;6.90;;;;;;;-3.16;65.71;98382.40;102709;1325;99197;-73
2021/12/04 04:06:07;;;;;;;19.50;6.90;;;;;;;-3.17;65.48;98380.35;102977;1318;99259;-77
2021/12/04 04:08:34;;;;;;;19.60;7.10;;;;;;;-3.16;65.96;98377.92;102856;1322;112784;-78
2021/12/04 04:11:02;;;;;;;21.90;7.40;;;;;;;-3.17;65.73;98376.73;102830;1320;99298;-75
2021/12/04 04:13:30;;;;;;;19.20;6.80;;;;;;;-3.17;65.87;98373.98;102867;1322;107901;-75
2021/12/04 04:16:00;;;;;;;18.40;6.80;;;;;;;-3.16;65.83;98370.98;102994;1318;99250;-76
2021/12/04 04:18:30;;;;;;;19.90;7.60;;;;;;;-3.17;65.70;98369.09;103045;1318;99381;-75
2021/12/04 04:20:58;;;;;;;18.90;6.90;;;;;;;-3.15;66.04;98374.41;102873;1321;112892;-75
2021/12/04 04:23:27;;;;;;;23.30;7.80;;;;;;;-3.11;66.05;98369.45;102980;1319;99262;-75
2021/12/04 04:25:55;;;;;;;19.60;6.40;;;;;;;-3.09;66.47;98373.22;102772;1321;108898;-74
2021/12/04 04:28:23;;;;;;;18.10;6.20;;;;;;;-3.07;66.42;98369.52;102861;1317;99267;-73
2021/12/04 04:30:52;;;;;;;18.10;6.70;;;;;;;-3.04;66.38;98360.73;102893;1322;99290;-73
2021/12/04 04:33:20;;;;;;;16.20;5.60;;;;;;;-3.01;66.32;98359.61;102913;1322;112632;-73
2021/12/04 04:36:00;;;;;;;20.00;6.80;;;;;;;-3.00;66.50;98355.42;102984;1318;96732;-74
2021/12/04 04:38:35;;;;;;;17.30;6.00;;;;;;;-3.01;66.22;98355.45;102912;1319;107834;-73
2021/12/04 04:58:08;;;;;;;17.50;6.10;;;;;;;-2.95;66.10;98368.31;102777;1321;99375;-74
2021/12/04 05:11:22;;;;;;;14.80;5.80;;;;;;;-2.98;66.14;98362.15;102794;1321;99351;-73
2021/12/04 05:13:51;;;;;;;17.80;6.00;;;;;;;-3.00;66.28;98362.36;102952;1318;112932;-73
2021/12/04 05:16:21;;;;;;;17.30;6.70;;;;;;;-3.01;66.16;98363.10;102828;1321;100761;-74
2021/12/04 05:18:56;;;;;;;17.50;6.70;;;;;;;-3.04;66.14;98361.44;102974;1319;107826;-73
2021/12/04 05:21:24;;;;;;;18.30;7.10;;;;;;;-3.06;66.11;98365.68;102914;1319;99678;-73
2021/12/04 05:23:55;;;;;;;21.20;7.30;;;;;;;-3.07;66.08;98366.58;102974;1319;96629;-74
2021/12/04 05:26:27;;;;;;;17.10;6.70;;;;;;;-3.10;66.26;98364.05;102910;1319;112744;-75
2021/12/04 05:28:58;;;;;;;18.50;6.40;;;;;;;-3.14;66.36;98363.10;102951;1319;99138;-73
2021/12/04 05:31:28;;;;;;;18.50;6.80;;;;;;;-3.15;66.55;98356.90;102896;1319;107231;-74
2021/12/04 05:33:56;;;;;;;20.30;6.70;;;;;;;-3.20;66.53;98354.44;102915;1321;99243;-77
2021/12/04 05:36:24;;;;;;;18.60;7.30;;;;;;;-3.22;66.42;98349.45;102999;1319;99724;-74
2021/12/04 05:38:53;;;;;;;16.00;6.30;;;;;;;-3.22;66.55;98346.16;102944;1318;112863;-74
2021/12/04 05:41:21;;;;;;;16.10;5.60;;;;;;;-3.22;66.66;98349.10;102878;1322;99288;-75
2021/12/04 05:43:49;;;;;;;16.30;5.60;;;;;;;-3.21;66.85;98345.45;102991;1320;107829;-74
2021/12/04 05:46:20;;;;;;;16.50;6.40;;;;;;;-3.21;66.64;98343.88;102996;1318;100060;-71
2021/12/04 05:48:53;;;;;;;17.00;6.30;;;;;;;-3.18;66.93;98344.14;102949;1321;96541;-74
2021/12/04 05:54:00;;;;;;;15.90;5.90;;;;;;;-3.12;66.80;98341.73;102919;1319;99277;-74
2021/12/04 05:56:30;;;;;;;15.70;5.50;;;;;;;-3.06;66.85;98336.71;102816;1318;107885;-73
2021/12/04 05:58:59;;;;;;;18.50;6.30;;;;;;;-2.99;66.92;98337.02;102736;1321;99366;-73
2021/12/04 06:01:28;;;;;;;17.40;5.40;;;;;;;-2.91;66.87;98340.59;102944;1323;99320;-73
2021/12/04 06:03:57;;;;;;;18.70;6.80;;;;;;;-2.83;66.83;98342.79;102761;1321;112497;-73
2021/12/04 06:06:25;;;;;;;18.70;6.50;;;;;;;-2.77;66.84;98336.73;102949;1321;100076;-72
2021/12/04 06:08:53;;;;;;;16.10;5.90;;;;;;;-2.76;66.78;98331.83;102950;1319;107732;-73
2021/12/04 06:11:21;;;;;;;17.50;6.00;;;;;;;-2.75;66.92;98335.96;102998;1319;99337;-73
2021/12/04 06:13:50;;;;;;;15.60;5.80;;;;;;;-2.75;66.72;98339.61;102985;1318;99265;-74
2021/12/04 06:16:18;;;;;;;16.20;5.80;;;;;;;-2.75;66.87;98340.65;102994;1321;110675;-74
2021/12/04 06:18:46;;;;;;;17.00;6.00;;;;;;;-2.77;66.82;98336.73;102737;1321;99303;-75
2021/12/04 06:24:15;;;;;;;17.60;5.80;;;;;;;-2.83;66.74;98332.38;102328;1321;99991;-74
2021/12/04 06:26:42;;;;;;;19.40;6.70;;;;;;;-2.88;66.87;98323.86;102929;1318;99223;-71
2021/12/04 06:29:10;;;;;;;18.30;6.80;;;;;;;-2.95;66.80;98324.58;103004;1322;112930;-73
2021/12/04 06:31:38;;;;;;;18.10;6.90;;;;;;;-3.00;66.92;98321.08;102825;1321;99346;-73
2021/12/04 06:34:06;;;;;;;21.40;7.50;;;;;;;-3.04;67.01;98317.89;102980;1318;107872;-72
2021/12/04 06:36:34;;;;;;;23.10;8.60;;;;;;;-3.10;67.18;98321.92;102735;1317;99477;-72
2021/12/04 06:39:04;;;;;;;19.50;7.10;;;;;;;-3.14;67.17;98320.27;102832;1321;96632;-73
2021/12/04 06:41:32;;;;;;;23.10;8.80;;;;;;;-3.15;67.27;98319.77;102865;1320;112822;-74
2021/12/04 06:43:59;;;;;;;20.70;6.90;;;;;;;-3.15;67.25;98317.00;102866;1318;97839;-73
2021/12/04 06:46:28;;;;;;;19.10;7.20;;;;;;;-3.13;67.34;98308.30;102806;1321;107995;-74
2021/12/04 06:49:15;;;;;;;17.80;6.10;;;;;;;-3.11;67.44;98307.70;102906;1318;99894;-70
2021/12/04 06:51:48;;;;;;;21.00;7.30;;;;;;;-3.07;67.44;98302.92;102907;1319;96593;-71
2021/12/04 06:54:22;;;;;;;20.50;6.90;;;;;;;-3.05;67.62;98296.95;102955;1319;112425;-70
2021/12/04 06:56:50;;;;;;;22.00;6.80;;;;;;;-3.01;67.37;98298.90;102977;1318;98411;-72
2021/12/04 06:59:28;;;;;;;22.30;8.20;;;;;;;-2.97;67.40;98298.29;102997;1318;107813;-72
2021/12/04 07:01:56;;;;;;;18.20;6.50;;;;;;;-2.93;67.37;98298.14;102720;1321;99345;-72
2021/12/04 07:04:35;;;;;;;19.20;6.80;;;;;;;-2.87;67.66;98296.41;102875;1318;99699;-75
2021/12/04 07:07:03;;;;;;;16.50;6.70;;;;;;;-2.82;67.36;98294.70;102893;1318;112873;-73
2021/12/04 07:09:32;;;;;;;16.90;5.70;;;;;;;-2.76;67.63;98294.34;102901;1318;99269;-74
2021/12/04 07:12:01;;;;;;;20.40;7.00;;;;;;;-2.69;67.58;98297.27;102937;1318;108569;-74
2021/12/04 07:14:30;;;;;;;20.10;6.30;;;;;;;-2.63;67.44;98284.58;102960;1318;96647;-74
2021/12/04 07:17:01;;;;;;;19.70;6.40;;;;;;;-2.57;67.55;98284.56;102969;1318;99253;-73
2021/12/04 07:19:31;;;;;;;18.20;6.60;;;;;;;-2.52;67.54;98287.70;102876;1319;112843;-74
2021/12/04 07:22:01;;;;;;;21.00;7.40;;;;;;;-2.47;67.80;98279.89;102775;1321;99269;-72
2021/12/04 07:24:32;;;;;;;18.70;6.40;;;;;;;-2.41;67.61;98274.66;102753;1321;107862;-72
2021/12/04 07:27:00;;;;;;;18.10;6.00;;;;;;;-2.36;67.71;98272.96;102909;1318;99259;-73
2021/12/04 07:29:28;;;;;;;20.10;7.00;;;;;;;-2.31;67.34;98270.02;102936;1319;99844;-72
2021/12/04 07:31:56;;;;;;;24.40;7.80;;;;;;;-2.27;67.51;98266.23;102793;1321;112872;-72
2021/12/04 07:34:24;;;;;;;19.20;6.60;;;;;;;-2.23;67.49;98267.28;102892;1318;99314;-73
2021/12/04 07:36:51;;;;;;;17.10;6.10;;;;;;;-2.16;67.51;98262.23;102894;1318;107891;-73
2021/12/04 07:39:19;;;;;;;20.30;6.00;;;;;;;-2.09;67.47;98258.15;102799;1319;99407;-74
2021/12/04 07:41:47;;;;;;;17.20;6.10;;;;;;;-2.02;67.15;98252.70;102933;1318;99410;-76
2021/12/04 07:44:15;;;;;;;19.30;7.30;;;;;;;-1.96;67.33;98250.23;102735;1321;112874;-72
2021/12/04 07:46:43;;;;;;;17.60;6.00;;;;;;;-1.86;67.25;98246.95;102797;1325;99271;-74
2021/12/04 07:49:11;;;;;;;16.10;5.60;;;;;;;-1.80;66.92;98245.16;102884;1322;106246;-76
2021/12/04 07:51:39;;;;;;;21.90;6.70;;;;;;;-1.74;66.93;98245.66;102857;1321;96656;-73
2021/12/04 07:54:08;;;;;;;18.70;6.80;;;;;;;-1.69;67.01;98244.94;102732;1325;99322;-79
2021/12/04 07:56:37;;;;;;;17.80;6.30;;;;;;;-1.66;66.94;98244.82;102785;1321;114224;-74
2021/12/04 07:59:04;;;;;;;20.70;6.30;;;;;;;-1.63;67.04;98235.86;102756;1322;99275;-74
2021/12/04 08:01:32;;;;;;;16.40;6.20;;;;;;;-1.58;67.09;98233.08;102897;1319;106779;-74
2021/12/04 08:04:02;;;;;;;18.40;6.50;;;;;;;-1.53;67.11;98237.23;102979;1320;99962;-73
2021/12/04 08:06:33;;;;;;;19.30;7.20;;;;;;;-1.47;67.04;98239.29;102845;1321;99686;-73
2021/12/04 08:09:03;;;;;;;17.90;6.10;;;;;;;-1.40;67.14;98233.80;102955;1318;111735;-74
2021/12/04 08:11:33;;;;;;;21.40;6.80;;;;;;;-1.33;67.15;98227.63;102837;1321;99343;-74
2021/12/04 08:14:02;;;;;;;18.30;6.90;;;;;;;-1.27;67.13;98224.27;102967;1318;107750;-70
2021/12/04 08:16:33;;;;;;;18.60;6.60;;;;;;;-1.21;67.28;98222.64;102874;1318;99423;-69
2021/12/04 08:19:03;;;;;;;18.10;6.30;;;;;;;-1.11;67.18;98227.84;102842;1318;99011;-69
2021/12/04 08:21:32;;;;;;;21.50;6.80;;;;;;;-1.04;66.90;98227.38;102740;1321;113334;-70
2021/12/04 08:24:06;;;;;;;18.60;7.10;;;;;;;-0.95;67.03;98226.01;102766;1321;99268;-71
2021/12/04 08:26:39;;;;;;;;;;;;;;;-0.88;66.99;98226.08;102991;1319;107724;-73
2021/12/04 08:29:09;;;;;;;17.00;6.10;;;;;;;-0.83;66.74;98219.81;102917;1318;99390;-75
2021/12/04 08:31:37;;;;;;;20.10;6.60;;;;;;;-0.75;67.00;98217.05;102788;1319;99155;-80
2021/12/04 08:34:06;;;;;;;17.00;5.70;;;;;;;-0.65;66.93;98216.29;102712;1321;114440;-71
2021/12/04 08:36:35;;;;;;;14.10;5.70;;;;;;;-0.55;66.88;98219.56;102792;1325;97925;-75
2021/12/04 08:39:05;;;;;;;18.50;6.20;;;;;;;-0.47;66.84;98220.97;102782;1321;109508;-73
2021/12/04 08:41:35;;;;;;;16.50;5.90;;;;;;;-0.36;66.87;98228.35;102631;1321;99362;-71
2021/12/04 08:44:06;;;;;;;16.70;6.20;;;;;;;-0.26;66.47;98220.78;102922;1318;99266;-76
2021/12/04 08:46:38;;;;;;;18.20;6.00;;;;;;;-0.14;66.57;98220.79;102925;1318;111907;-71
2021/12/04 08:49:10;;;;;;;19.60;6.30;;;;;;;0.05;66.75;98215.13;102895;1318;99343;-70
2021/12/04 08:51:41;;;;;;;19.40;6.30;;;;;;;0.28;66.67;98215.52;102841;1318;109521;-71
2021/12/04 08:54:14;;;;;;;18.80;6.00;;;;;;;0.44;66.77;98213.27;102872;1318;99208;-71
2021/12/04 08:56:44;;;;;;;18.10;6.30;;;;;;;0.59;66.47;98212.37;102855;1319;99257;-72
2021/12/04 08:59:16;;;;;;;17.60;6.50;;;;;;;0.73;66.45;98203.89;104125;1318;112861;-70
2021/12/04 09:01:46;;;;;;;16.60;6.30;;;;;;;0.87;66.40;98204.27;102836;1319;99250;-70
2021/12/04 09:04:24;;;;;;;15.90;5.50;;;;;;;1.03;66.00;98200.61;103272;1318;107872;-72
2021/12/04 09:06:57;;;;;;;15.90;5.90;;;;;;;1.15;65.78;98189.73;102902;1315;99228;-71
2021/12/04 09:09:28;;;;;;;13.70;4.10;;;;;;;1.30;66.42;98184.07;102858;1319;99351;-71
2021/12/04 09:12:16;;;;;;;19.20;6.20;;;;;;;1.48;66.07;98174.31;102839;1320;113038;-72
2021/12/04 09:14:47;;;;;;;16.50;5.50;;;;;;;1.58;65.66;98172.07;102826;1324;99250;-71
2021/12/04 09:17:20;;;;;;;15.40;5.40;;;;;;;1.73;65.86;98159.79;102932;1321;107935;-70
2021/12/04 09:19:51;;;;;;;15.80;5.30;;;;;;;1.92;65.86;98156.36;102868;1322;99355;-71
2021/12/04 09:22:26;;;;;;;15.20;4.80;;;;;;;2.05;65.53;98152.71;102970;1316;99235;-75
2021/12/04 09:25:10;;;;;;;14.50;5.10;;;;;;;2.04;64.89;98139.30;102841;1319;112656;-72
2021/12/04 09:27:54;;;;;;;18.70;6.40;;;;;;;1.99;64.85;98136.58;102874;1318;99250;-72
2021/12/04 10:14:47;;;;;;;15.80;5.70;;;;;;;1.70;62.05;98080.06;102866;1321;99360;-73
2021/12/04 10:17:39;;;;;;;13.90;5.30;;;;;;;1.57;62.22;98079.70;102833;1326;97304;-71
2021/12/04 10:20:19;;;;;;;16.60;5.80;;;;;;;1.51;62.20;98079.27;102842;1320;112780;-75
2021/12/04 10:23:09;;;;;;;14.60;5.30;;;;;;;1.49;62.09;98073.98;102787;1325;97327;-76
2021/12/04 10:33:59;;;;;;;16.90;6.40;;;;;;;1.41;61.93;98075.08;102551;1322;113255;-72
2021/12/04 10:36:33;;;;;;;15.40;5.60;;;;;;;1.42;61.30;98075.89;102653;1322;99106;-72
2021/12/04 10:39:04;;;;;;;18.40;5.70;;;;;;;1.42;61.48;98068.58;102915;1320;107847;-72
2021/12/04 10:41:39;;;;;;;19.10;6.00;;;;;;;1.37;60.95;98063.40;102678;1320;97848;-74
2021/12/04 10:44:18;;;;;;;17.80;6.20;;;;;;;1.29;60.92;98056.63;103934;1322;99264;-74
2021/12/04 10:47:06;;;;;;;16.10;5.40;;;;;;;1.26;60.88;98050.29;102579;1319;112772;-73
2021/12/04 10:52:37;;;;;;;14.30;5.30;;;;;;;1.27;60.74;98045.92;103074;1318;107889;-73
2021/12/04 10:55:18;;;;;;;16.20;5.30;;;;;;;1.30;60.43;98045.60;102714;1317;168542;-72
2021/12/04 11:27:58;;;;;;;18.50;6.30;;;;;;;1.60;58.30;98014.16;102768;1320;112871;-73
2021/12/04 11:41:30;;;;;;;15.80;6.50;;;;;;;1.58;58.54;98010.97;102648;1321;112863;-71
2021/12/04 11:44:23;;;;;;;17.70;6.70;;;;;;;1.60;58.34;98008.57;102696;1320;99984;-73
2021/12/04 11:46:59;;;;;;;17.90;6.20;;;;;;;1.63;58.64;98001.93;102687;1321;107893;-73
2021/12/04 11:49:33;;;;;;;16.50;6.20;;;;;;;1.64;58.63;98002.91;102541;1325;99298;-70
2021/12/04 11:52:07;;;;;;;17.40;6.60;;;;;;;1.63;58.20;98005.77;102650;1320;99246;-71
2021/12/04 11:54:57;;;;;;;17.40;6.30;;;;;;;1.60;57.93;97995.48;102567;1319;112916;-72
2021/12/04 11:57:34;;;;;;;19.90;6.30;;;;;;;1.55;57.65;98003.41;102317;1320;99306;-72
2021/12/04 12:00:14;;;;;;;17.40;6.30;;;;;;;1.49;57.87;97997.77;102653;1322;106949;-71
2021/12/04 12:02:44;;;;;;;16.70;6.40;;;;;;;1.46;58.03;97995.99;102516;1321;99156;-73
2021/12/04 12:05:21;;;;;;;18.90;6.70;;;;;;;1.47;58.23;97993.53;102789;1319;99347;-72
2021/12/04 12:07:54;;;;;;;19.40;6.60;;;;;;;1.47;57.82;97990.02;102718;1321;111800;-70
2021/12/04 12:10:28;;;;;;;19.10;7.30;;;;;;;1.48;58.19;97988.38;102564;1321;97472;-72
2021/12/04 12:13:05;;;;;;;17.10;6.40;;;;;;;1.50;57.95;97988.64;102649;1318;107912;-73
2021/12/04 12:15:36;;;;;;;17.30;6.40;;;;;;;1.51;58.28;97991.04;103781;1321;99224;-73
2021/12/04 12:18:17;;;;;;;17.20;6.60;;;;;;;1.55;58.31;97990.69;102907;1319;97864;-72
2021/12/04 12:21:07;;;;;;;20.20;7.70;;;;;;;1.59;57.99;97987.84;102858;1319;112949;-71
2021/12/04 12:23:34;;;;;;;20.80;8.10;;;;;;;1.56;57.95;97992.20;102956;1319;97446;-72
2021/12/04 12:37:26;;;;;;;18.30;7.00;;;;;;;1.36;57.93;97980.12;102826;1322;99569;-72
2021/12/04 12:40:04;;;;;;;17.40;6.50;;;;;;;1.33;57.91;97978.38;103046;1321;107924;-71
2021/12/04 12:42:40;;;;;;;20.40;7.30;;;;;;;1.32;57.87;97976.84;103055;1322;97769;-72
2021/12/04 12:45:21;;;;;;;18.30;6.80;;;;;;;1.28;57.86;97972.65;103024;1319;99316;-74
2021/12/04 12:48:08;;;;;;;17.80;6.90;;;;;;;1.20;57.92;97972.05;103019;1319;112896;-74
2021/12/04 12:50:46;;;;;;;16.10;6.50;;;;;;;1.16;57.86;97973.84;102973;1319;99233;-79
2021/12/04 12:53:20;;;;;;;20.50;8.00;;;;;;;1.15;57.95;97973.20;102807;1322;107860;-79
2021/12/04 12:55:53;;;;;;;23.50;9.30;;;;;;;1.15;57.98;97972.82;102913;1319;97440;-75
2021/12/04 12:58:31;;;;;;;21.30;8.40;;;;;;;1.12;58.08;97962.34;102801;1322;98037;-71
2021/12/04 13:12:52;;;;;;;21.40;8.60;;;;;;;1.06;58.10;97939.42;102747;1322;99357;-75
2021/12/04 13:15:29;;;;;;;23.20;8.20;;;;;;;1.05;58.20;97941.37;102834;1322;113518;-71
2021/12/04 13:18:17;;;;;;;21.40;8.80;;;;;;;1.03;58.12;97947.25;102768;1319;99334;-71
2021/12/04 13:20:46;;;;;;;21.60;7.50;;;;;;;1.00;58.35;97954.90;104168;1318;107748;-72
2021/12/04 13:23:17;;;;;;;20.00;8.10;;;;;;;1.01;58.17;97951.54;102858;1318;99339;-71
2021/12/04 13:25:57;;;;;;;21.50;7.70;;;;;;;1.01;58.25;97951.69;102633;1318;97402;-73
2021/12/04 13:28:29;;;;;;;20.40;8.10;;;;;;;1.02;58.43;97956.54;102683;1322;111189;-75
2021/12/04 13:31:00;;;;;;;;;;;;;;;1.03;58.35;97958.60;102781;1318;99253;-71
2021/12/04 13:33:37;;;;;;;19.50;7.30;;;;;;;1.01;58.25;97955.36;102610;1318;107909;-72
2021/12/04 13:36:24;;;;;;;20.50;7.80;;;;;;;1.01;58.30;97955.88;102873;1322;99310;-70
2021/12/04 13:38:57;;;;;;;21.60;7.90;;;;;;;1.00;58.27;97959.28;102859;1318;99329;-71
2021/12/04 13:41:26;;;;;;;21.10;7.60;;;;;;;0.98;58.38;97958.33;102788;1322;113015;-72
2021/12/04 13:43:58;;;;;;;21.30;8.10;;;;;;;0.97;58.51;97962.92;102875;1318;96615;-72
2021/12/04 13:46:27;;;;;;;19.40;7.60;;;;;;;0.98;58.41;97960.43;102893;1320;107890;-71
2021/12/04 13:49:02;;;;;;;20.00;8.50;;;;;;;0.98;58.52;97959.56;102839;1318;99444;-71
2021/12/04 13:51:35;;;;;;;20.70;8.50;;;;;;;0.96;58.40;97961.95;102913;1318;99288;-71
2021/12/04 13:54:05;;;;;;;20.50;8.40;;;;;;;0.94;58.59;97960.98;102842;1319;112583;-69
2021/12/04 13:56:35;;;;;;;22.90;9.20;;;;;;;0.92;58.41;97964.58;102829;1319;99284;-71
2021/12/04 13:59:05;;;;;;;19.10;8.30;;;;;;;0.87;58.47;97956.24;102753;1318;107557;-71
2021/12/04 14:01:42;;;;;;;24.10;9.00;;;;;;;0.84;58.55;97946.80;102688;1319;99290;-71
2021/12/04 14:04:17;;;;;;;23.60;8.70;;;;;;;0.82;58.49;97942.74;102672;1320;99072;-70
2021/12/04 14:07:00;;;;;;;21.80;9.20;;;;;;;0.76;58.47;97945.83;102643;1318;112064;-70
2021/12/04 14:09:34;;;;;;;21.20;8.60;;;;;;;0.71;58.44;97948.53;102807;1321;98774;-71
2021/12/04 14:12:05;;;;;;;23.60;9.20;;;;;;;0.67;58.41;97949.08;102773;1318;107907;-71
2021/12/04 14:14:35;;;;;;;21.70;8.80;;;;;;;0.62;58.53;97950.69;102700;1320;99358;-72
2021/12/04 14:17:13;;;;;;;22.40;9.20;;;;;;;0.56;58.42;97956.77;102610;1321;99348;-70
2021/12/04 14:19:44;;;;;;;23.50;9.50;;;;;;;0.49;58.70;97961.48;102766;1319;114679;-70
2021/12/04 14:22:18;;;;;;;19.60;7.80;;;;;;;0.43;58.47;97962.08;102830;1318;97893;-72
2021/12/04 14:24:51;;;;;;;19.60;7.60;;;;;;;0.39;58.63;97957.09;102831;1319;107040;-71
2021/12/04 14:27:33;;;;;;;21.80;8.40;;;;;;;0.34;58.60;97959.60;102828;1323;100081;-72